Strona główna
METAR-TAF:

METAR-TAF

Lotnisko :

Port lotniczy Ankara

Ankara Esenboğa, Turcja

Szerokość geograficzna: 40-07N, Długość geograficzna: 032-59E, wysokość: 953 m

Aktualna obserwacja pogody

Raport powstał 29 minut temu, godzina 07:50 UTC
Wiatr 2 kt z kierunków zmiennych
Temperatura -3°C
Wilgotność 80%
Ciśnienie 1024 hPa
Widzialność: 4000 m
zamglenie

METAR: LTAC 230750Z VRB02KT 4000 BR NSC M03/M06 Q1024 BECMG 9999 NSW

czas: 11:19 (08:19 UTC)

Prognoza

Raport powstał 3 godziny i 39 minut temu, godzina 04:40 UTC
Prognoza ważna od 23 godzina 06 UTC do 24 godzina 06 UTC
Wiatr 2 kt z kierunków zmiennych
Widzialność: 4000 m
zamglenie
Stopniowe zmiany
od 23 godzina 06 UTC do 23 godzina 08 UTC
Widzialność 10 km lub więcej
Rozproszone chmury na wysokości 4000 ft
Stopniowe zmiany
od 23 godzina 21 UTC do 23 godzina 23 UTC
Widzialność: 4000 m
zamglenie

TAF: LTAC 230440Z 2306/2406 VRB02KT 4000 BR NSC BECMG 2306/2308 9999 NSW SCT040 BECMG 2321/2323 4000 BR NSC

Obserwacja i prognoza pogody dla ponad 4000 lotnisk (raport METAR i TAF).

Dostępne stacje oznaczono żółtymi i czerwonymi punktami na mapie.

Najedź kursorem aby zobaczyć nazwę stacji.

Kliknij aby zobaczyć obserwacje i prognozy pogody.

Aby zmienić mapę: kliknij na zielony przycisk z czarnym krzyżykiem, aby powiększyć; na zielony przycisk z myślnikiem, aby pomniejszyć; na zielone strzałki, aby przejść do map sąsiednich.


METAR-TAF: